sensor_id;sensor_type;location;lat;lon;timestamp;P1;durP1;ratioP1;P2;durP2;ratioP2
75718;SDS011;64340;48.534;-3.036;2022-10-16T00:01:24;3.35;;;1.42;;
75718;SDS011;64340;48.534;-3.036;2022-10-16T00:03:52;4.85;;;1.85;;
75718;SDS011;64340;48.534;-3.036;2022-10-16T00:06:18;3.72;;;1.33;;
75718;SDS011;64340;48.534;-3.036;2022-10-16T00:08:45;2.65;;;0.90;;
75718;SDS011;64340;48.534;-3.036;2022-10-16T00:11:13;3.53;;;1.30;;
75718;SDS011;64340;48.534;-3.036;2022-10-16T00:13:41;3.42;;;1.50;;
75718;SDS011;64340;48.534;-3.036;2022-10-16T00:16:08;3.55;;;1.35;;
75718;SDS011;64340;48.534;-3.036;2022-10-16T00:18:35;3.03;;;1.30;;
75718;SDS011;64340;48.534;-3.036;2022-10-16T00:21:09;2.88;;;1.33;;
75718;SDS011;64340;48.534;-3.036;2022-10-16T00:23:37;3.03;;;1.17;;
75718;SDS011;64340;48.534;-3.036;2022-10-16T00:26:05;3.75;;;1.38;;
75718;SDS011;64340;48.534;-3.036;2022-10-16T00:28:33;2.83;;;1.30;;
75718;SDS011;64340;48.534;-3.036;2022-10-16T00:30:59;2.92;;;1.20;;
75718;SDS011;64340;48.534;-3.036;2022-10-16T00:33:28;2.78;;;1.13;;
75718;SDS011;64340;48.534;-3.036;2022-10-16T00:35:54;2.70;;;1.10;;
75718;SDS011;64340;48.534;-3.036;2022-10-16T00:38:23;2.45;;;1.25;;
75718;SDS011;64340;48.534;-3.036;2022-10-16T00:40:49;3.65;;;1.10;;
75718;SDS011;64340;48.534;-3.036;2022-10-16T00:46:13;2.83;;;0.98;;
75718;SDS011;64340;48.534;-3.036;2022-10-16T00:48:40;5.05;;;1.00;;
75718;SDS011;64340;48.534;-3.036;2022-10-16T00:51:10;2.42;;;1.17;;
75718;SDS011;64340;48.534;-3.036;2022-10-16T00:53:36;1.83;;;0.90;;
75718;SDS011;64340;48.534;-3.036;2022-10-16T00:56:02;2.22;;;0.90;;
75718;SDS011;64340;48.534;-3.036;2022-10-16T00:58:28;2.72;;;1.02;;
75718;SDS011;64340;48.534;-3.036;2022-10-16T01:00:54;2.13;;;0.98;;
75718;SDS011;64340;48.534;-3.036;2022-10-16T01:03:30;3.30;;;0.90;;
75718;SDS011;64340;48.534;-3.036;2022-10-16T01:06:01;3.90;;;1.10;;
75718;SDS011;64340;48.534;-3.036;2022-10-16T01:08:49;2.95;;;0.93;;
75718;SDS011;64340;48.534;-3.036;2022-10-16T01:11:34;1.80;;;1.00;;
75718;SDS011;64340;48.534;-3.036;2022-10-16T01:14:48;2.38;;;0.80;;
75718;SDS011;64340;48.534;-3.036;2022-10-16T01:17:28;2.95;;;1.17;;
75718;SDS011;64340;48.534;-3.036;2022-10-16T01:22:38;1.65;;;0.65;;
75718;SDS011;64340;48.534;-3.036;2022-10-16T01:28:11;3.00;;;1.10;;
75718;SDS011;64340;48.534;-3.036;2022-10-16T01:30:40;4.35;;;1.48;;
75718;SDS011;64340;48.534;-3.036;2022-10-16T01:33:19;2.55;;;0.80;;
75718;SDS011;64340;48.534;-3.036;2022-10-16T01:35:52;2.97;;;1.30;;
75718;SDS011;64340;48.534;-3.036;2022-10-16T01:38:33;2.85;;;1.00;;
75718;SDS011;64340;48.534;-3.036;2022-10-16T01:41:08;1.80;;;0.80;;
75718;SDS011;64340;48.534;-3.036;2022-10-16T01:43:53;1.95;;;0.80;;
75718;SDS011;64340;48.534;-3.036;2022-10-16T01:46:27;2.55;;;0.90;;
75718;SDS011;64340;48.534;-3.036;2022-10-16T01:48:55;1.58;;;0.85;;
75718;SDS011;64340;48.534;-3.036;2022-10-16T01:51:22;2.53;;;0.93;;
75718;SDS011;64340;48.534;-3.036;2022-10-16T01:53:50;2.28;;;0.80;;
75718;SDS011;64340;48.534;-3.036;2022-10-16T01:56:20;1.90;;;0.85;;
75718;SDS011;64340;48.534;-3.036;2022-10-16T01:58:55;1.85;;;1.02;;
75718;SDS011;64340;48.534;-3.036;2022-10-16T02:01:24;2.00;;;0.77;;
75718;SDS011;64340;48.534;-3.036;2022-10-16T02:03:55;2.63;;;0.80;;
75718;SDS011;64340;48.534;-3.036;2022-10-16T02:06:23;1.67;;;0.73;;
75718;SDS011;64340;48.534;-3.036;2022-10-16T02:08:50;2.42;;;0.70;;
75718;SDS011;64340;48.534;-3.036;2022-10-16T02:11:16;1.58;;;0.80;;
75718;SDS011;64340;48.534;-3.036;2022-10-16T02:13:46;1.77;;;0.60;;
75718;SDS011;64340;48.534;-3.036;2022-10-16T02:18:43;2.10;;;0.88;;
75718;SDS011;64340;48.534;-3.036;2022-10-16T02:24:03;2.38;;;0.98;;
75718;SDS011;64340;48.534;-3.036;2022-10-16T02:27:03;1.27;;;0.60;;
75718;SDS011;64340;48.534;-3.036;2022-10-16T02:29:39;1.88;;;0.82;;
75718;SDS011;64340;48.534;-3.036;2022-10-16T02:32:10;1.58;;;0.70;;
75718;SDS011;64340;48.534;-3.036;2022-10-16T02:34:40;2.15;;;0.70;;
75718;SDS011;64340;48.534;-3.036;2022-10-16T02:37:06;4.05;;;1.00;;
75718;SDS011;64340;48.534;-3.036;2022-10-16T02:39:33;1.77;;;0.52;;
75718;SDS011;64340;48.534;-3.036;2022-10-16T02:42:00;1.73;;;0.60;;
75718;SDS011;64340;48.534;-3.036;2022-10-16T02:44:26;1.50;;;0.55;;
75718;SDS011;64340;48.534;-3.036;2022-10-16T02:46:51;2.85;;;0.80;;
75718;SDS011;64340;48.534;-3.036;2022-10-16T02:49:17;1.27;;;0.57;;
75718;SDS011;64340;48.534;-3.036;2022-10-16T02:51:43;2.03;;;0.60;;
75718;SDS011;64340;48.534;-3.036;2022-10-16T02:54:09;1.67;;;0.70;;
75718;SDS011;64340;48.534;-3.036;2022-10-16T02:56:35;4.05;;;0.80;;
75718;SDS011;64340;48.534;-3.036;2022-10-16T02:59:01;3.08;;;0.90;;
75718;SDS011;64340;48.534;-3.036;2022-10-16T03:01:27;1.80;;;0.63;;
75718;SDS011;64340;48.534;-3.036;2022-10-16T03:03:53;1.02;;;0.60;;
75718;SDS011;64340;48.534;-3.036;2022-10-16T03:06:19;1.75;;;0.75;;
75718;SDS011;64340;48.534;-3.036;2022-10-16T03:08:44;3.47;;;0.93;;
75718;SDS011;64340;48.534;-3.036;2022-10-16T03:11:10;3.88;;;0.75;;
75718;SDS011;64340;48.534;-3.036;2022-10-16T03:13:36;2.53;;;0.80;;
75718;SDS011;64340;48.534;-3.036;2022-10-16T03:16:02;1.38;;;0.60;;
75718;SDS011;64340;48.534;-3.036;2022-10-16T03:18:27;1.23;;;0.50;;
75718;SDS011;64340;48.534;-3.036;2022-10-16T03:20:53;1.45;;;0.50;;
75718;SDS011;64340;48.534;-3.036;2022-10-16T03:23:19;2.60;;;0.70;;
75718;SDS011;64340;48.534;-3.036;2022-10-16T03:25:45;2.10;;;0.88;;
75718;SDS011;64340;48.534;-3.036;2022-10-16T03:28:10;1.55;;;0.60;;
75718;SDS011;64340;48.534;-3.036;2022-10-16T03:30:36;1.83;;;0.50;;
75718;SDS011;64340;48.534;-3.036;2022-10-16T03:33:04;1.20;;;0.57;;
75718;SDS011;64340;48.534;-3.036;2022-10-16T03:35:30;0.90;;;0.32;;
75718;SDS011;64340;48.534;-3.036;2022-10-16T03:37:56;1.75;;;0.57;;
75718;SDS011;64340;48.534;-3.036;2022-10-16T03:40:22;2.08;;;0.50;;
75718;SDS011;64340;48.534;-3.036;2022-10-16T03:42:48;1.58;;;0.60;;
75718;SDS011;64340;48.534;-3.036;2022-10-16T03:45:14;1.65;;;0.60;;
75718;SDS011;64340;48.534;-3.036;2022-10-16T03:47:40;2.58;;;0.60;;
75718;SDS011;64340;48.534;-3.036;2022-10-16T03:50:06;0.80;;;0.40;;
75718;SDS011;64340;48.534;-3.036;2022-10-16T03:52:32;1.35;;;0.40;;
75718;SDS011;64340;48.534;-3.036;2022-10-16T03:54:58;1.10;;;0.40;;
75718;SDS011;64340;48.534;-3.036;2022-10-16T03:57:24;1.30;;;0.50;;
75718;SDS011;64340;48.534;-3.036;2022-10-16T03:59:50;2.40;;;0.50;;
75718;SDS011;64340;48.534;-3.036;2022-10-16T04:02:16;1.40;;;0.75;;
75718;SDS011;64340;48.534;-3.036;2022-10-16T04:04:42;1.85;;;0.68;;
75718;SDS011;64340;48.534;-3.036;2022-10-16T04:07:07;2.10;;;0.70;;
75718;SDS011;64340;48.534;-3.036;2022-10-16T04:09:33;1.40;;;0.50;;
75718;SDS011;64340;48.534;-3.036;2022-10-16T04:11:59;1.30;;;0.47;;
75718;SDS011;64340;48.534;-3.036;2022-10-16T04:14:25;1.98;;;0.50;;
75718;SDS011;64340;48.534;-3.036;2022-10-16T04:16:50;0.75;;;0.40;;
75718;SDS011;64340;48.534;-3.036;2022-10-16T04:19:16;2.10;;;0.60;;
75718;SDS011;64340;48.534;-3.036;2022-10-16T04:21:42;1.40;;;0.43;;
75718;SDS011;64340;48.534;-3.036;2022-10-16T04:24:08;1.55;;;0.50;;
75718;SDS011;64340;48.534;-3.036;2022-10-16T04:26:33;2.90;;;0.50;;
75718;SDS011;64340;48.534;-3.036;2022-10-16T04:28:59;1.27;;;0.60;;
75718;SDS011;64340;48.534;-3.036;2022-10-16T04:31:25;1.42;;;0.45;;
75718;SDS011;64340;48.534;-3.036;2022-10-16T04:33:51;0.65;;;0.30;;
75718;SDS011;64340;48.534;-3.036;2022-10-16T04:36:16;1.30;;;0.50;;
75718;SDS011;64340;48.534;-3.036;2022-10-16T04:38:42;1.38;;;0.40;;
75718;SDS011;64340;48.534;-3.036;2022-10-16T04:41:08;1.13;;;0.40;;
75718;SDS011;64340;48.534;-3.036;2022-10-16T04:43:34;0.73;;;0.30;;
75718;SDS011;64340;48.534;-3.036;2022-10-16T04:46:00;1.23;;;0.40;;
75718;SDS011;64340;48.534;-3.036;2022-10-16T04:48:26;2.92;;;0.50;;
75718;SDS011;64340;48.534;-3.036;2022-10-16T04:50:52;1.27;;;0.35;;
75718;SDS011;64340;48.534;-3.036;2022-10-16T04:53:18;1.73;;;0.50;;
75718;SDS011;64340;48.534;-3.036;2022-10-16T04:55:44;0.95;;;0.40;;
75718;SDS011;64340;48.534;-3.036;2022-10-16T04:58:10;0.70;;;0.30;;
75718;SDS011;64340;48.534;-3.036;2022-10-16T05:00:36;1.25;;;0.30;;
75718;SDS011;64340;48.534;-3.036;2022-10-16T05:03:03;0.95;;;0.30;;
75718;SDS011;64340;48.534;-3.036;2022-10-16T05:05:32;1.23;;;0.40;;
75718;SDS011;64340;48.534;-3.036;2022-10-16T05:07:58;1.60;;;0.40;;
75718;SDS011;64340;48.534;-3.036;2022-10-16T05:10:24;1.23;;;0.30;;
75718;SDS011;64340;48.534;-3.036;2022-10-16T05:12:50;1.20;;;0.40;;
75718;SDS011;64340;48.534;-3.036;2022-10-16T05:15:16;1.20;;;0.30;;
75718;SDS011;64340;48.534;-3.036;2022-10-16T05:17:43;0.88;;;0.40;;
75718;SDS011;64340;48.534;-3.036;2022-10-16T05:20:09;1.20;;;0.40;;
75718;SDS011;64340;48.534;-3.036;2022-10-16T05:22:35;1.10;;;0.40;;
75718;SDS011;64340;48.534;-3.036;2022-10-16T05:25:01;2.47;;;0.50;;
75718;SDS011;64340;48.534;-3.036;2022-10-16T05:27:27;1.98;;;0.47;;
75718;SDS011;64340;48.534;-3.036;2022-10-16T05:29:53;1.27;;;0.40;;
75718;SDS011;64340;48.534;-3.036;2022-10-16T05:32:19;1.33;;;0.32;;
75718;SDS011;64340;48.534;-3.036;2022-10-16T05:34:44;0.93;;;0.50;;
75718;SDS011;64340;48.534;-3.036;2022-10-16T05:37:11;0.95;;;0.40;;
75718;SDS011;64340;48.534;-3.036;2022-10-16T05:39:37;0.80;;;0.30;;
75718;SDS011;64340;48.534;-3.036;2022-10-16T05:42:04;1.45;;;0.40;;
75718;SDS011;64340;48.534;-3.036;2022-10-16T05:44:30;0.85;;;0.40;;
75718;SDS011;64340;48.534;-3.036;2022-10-16T05:46:56;0.98;;;0.40;;
75718;SDS011;64340;48.534;-3.036;2022-10-16T05:49:22;1.17;;;0.30;;
75718;SDS011;64340;48.534;-3.036;2022-10-16T05:51:48;1.08;;;0.40;;
75718;SDS011;64340;48.534;-3.036;2022-10-16T05:54:14;1.05;;;0.50;;
75718;SDS011;64340;48.534;-3.036;2022-10-16T05:56:39;1.20;;;0.30;;
75718;SDS011;64340;48.534;-3.036;2022-10-16T05:59:05;1.00;;;0.30;;
75718;SDS011;64340;48.534;-3.036;2022-10-16T06:01:31;0.57;;;0.22;;
75718;SDS011;64340;48.534;-3.036;2022-10-16T06:03:57;1.38;;;0.50;;
75718;SDS011;64340;48.534;-3.036;2022-10-16T06:06:24;1.23;;;0.40;;
75718;SDS011;64340;48.534;-3.036;2022-10-16T06:08:52;1.35;;;0.50;;
75718;SDS011;64340;48.534;-3.036;2022-10-16T06:11:20;1.20;;;0.50;;
75718;SDS011;64340;48.534;-3.036;2022-10-16T06:13:51;0.43;;;0.28;;
75718;SDS011;64340;48.534;-3.036;2022-10-16T06:16:18;1.42;;;0.40;;
75718;SDS011;64340;48.534;-3.036;2022-10-16T06:18:44;0.80;;;0.32;;
75718;SDS011;64340;48.534;-3.036;2022-10-16T06:21:14;2.42;;;0.40;;
75718;SDS011;64340;48.534;-3.036;2022-10-16T06:23:42;1.80;;;0.50;;
75718;SDS011;64340;48.534;-3.036;2022-10-16T06:26:11;1.10;;;0.30;;
75718;SDS011;64340;48.534;-3.036;2022-10-16T06:28:38;1.45;;;0.50;;
75718;SDS011;64340;48.534;-3.036;2022-10-16T06:31:05;0.55;;;0.30;;
75718;SDS011;64340;48.534;-3.036;2022-10-16T06:33:32;1.60;;;0.57;;
75718;SDS011;64340;48.534;-3.036;2022-10-16T06:36:08;2.00;;;0.60;;
75718;SDS011;64340;48.534;-3.036;2022-10-16T06:38:36;0.80;;;0.40;;
75718;SDS011;64340;48.534;-3.036;2022-10-16T06:41:03;1.42;;;0.50;;
75718;SDS011;64340;48.534;-3.036;2022-10-16T06:43:31;1.35;;;0.52;;
75718;SDS011;64340;48.534;-3.036;2022-10-16T06:45:57;1.55;;;0.50;;
75718;SDS011;64340;48.534;-3.036;2022-10-16T06:48:24;3.47;;;0.60;;
75718;SDS011;64340;48.534;-3.036;2022-10-16T06:50:58;1.02;;;0.45;;
75718;SDS011;64340;48.534;-3.036;2022-10-16T06:53:24;1.02;;;0.40;;
75718;SDS011;64340;48.534;-3.036;2022-10-16T06:55:51;1.08;;;0.40;;
75718;SDS011;64340;48.534;-3.036;2022-10-16T06:58:17;0.68;;;0.45;;
75718;SDS011;64340;48.534;-3.036;2022-10-16T07:00:44;1.95;;;0.60;;
75718;SDS011;64340;48.534;-3.036;2022-10-16T07:03:10;1.33;;;0.50;;
75718;SDS011;64340;48.534;-3.036;2022-10-16T07:05:39;1.13;;;0.50;;
75718;SDS011;64340;48.534;-3.036;2022-10-16T07:08:08;2.53;;;0.40;;
75718;SDS011;64340;48.534;-3.036;2022-10-16T07:10:35;0.75;;;0.40;;
75718;SDS011;64340;48.534;-3.036;2022-10-16T07:13:01;1.13;;;0.60;;
75718;SDS011;64340;48.534;-3.036;2022-10-16T07:15:27;1.95;;;0.40;;
75718;SDS011;64340;48.534;-3.036;2022-10-16T07:17:53;0.85;;;0.40;;
75718;SDS011;64340;48.534;-3.036;2022-10-16T07:20:19;1.67;;;0.40;;
75718;SDS011;64340;48.534;-3.036;2022-10-16T07:22:45;1.60;;;0.40;;
75718;SDS011;64340;48.534;-3.036;2022-10-16T07:25:11;0.90;;;0.35;;
75718;SDS011;64340;48.534;-3.036;2022-10-16T07:27:38;1.45;;;0.40;;
75718;SDS011;64340;48.534;-3.036;2022-10-16T07:30:06;2.13;;;0.50;;
75718;SDS011;64340;48.534;-3.036;2022-10-16T07:32:32;0.65;;;0.40;;
75718;SDS011;64340;48.534;-3.036;2022-10-16T07:34:58;1.35;;;0.40;;
75718;SDS011;64340;48.534;-3.036;2022-10-16T07:37:24;1.27;;;0.40;;
75718;SDS011;64340;48.534;-3.036;2022-10-16T07:39:49;1.63;;;0.50;;
75718;SDS011;64340;48.534;-3.036;2022-10-16T07:42:15;1.75;;;0.50;;
75718;SDS011;64340;48.534;-3.036;2022-10-16T07:44:41;1.35;;;0.50;;
75718;SDS011;64340;48.534;-3.036;2022-10-16T07:47:07;1.63;;;0.35;;
75718;SDS011;64340;48.534;-3.036;2022-10-16T07:49:33;1.38;;;0.60;;
75718;SDS011;64340;48.534;-3.036;2022-10-16T07:51:59;1.77;;;0.50;;
75718;SDS011;64340;48.534;-3.036;2022-10-16T07:54:24;3.28;;;0.50;;
75718;SDS011;64340;48.534;-3.036;2022-10-16T07:56:50;1.58;;;0.47;;
75718;SDS011;64340;48.534;-3.036;2022-10-16T07:59:16;1.75;;;0.80;;
75718;SDS011;64340;48.534;-3.036;2022-10-16T08:01:42;2.10;;;0.50;;
75718;SDS011;64340;48.534;-3.036;2022-10-16T08:04:09;1.52;;;0.60;;
75718;SDS011;64340;48.534;-3.036;2022-10-16T08:06:36;1.35;;;0.50;;
75718;SDS011;64340;48.534;-3.036;2022-10-16T08:09:03;1.85;;;0.60;;
75718;SDS011;64340;48.534;-3.036;2022-10-16T08:11:29;2.15;;;0.52;;
75718;SDS011;64340;48.534;-3.036;2022-10-16T08:13:56;1.75;;;0.50;;
75718;SDS011;64340;48.534;-3.036;2022-10-16T08:16:22;3.78;;;1.20;;
75718;SDS011;64340;48.534;-3.036;2022-10-16T08:18:50;8.98;;;1.38;;
75718;SDS011;64340;48.534;-3.036;2022-10-16T08:21:20;5.97;;;1.20;;
75718;SDS011;64340;48.534;-3.036;2022-10-16T08:23:48;6.20;;;1.00;;
75718;SDS011;64340;48.534;-3.036;2022-10-16T08:26:14;4.15;;;1.20;;
75718;SDS011;64340;48.534;-3.036;2022-10-16T08:28:40;3.47;;;1.20;;
75718;SDS011;64340;48.534;-3.036;2022-10-16T08:31:13;5.03;;;1.20;;
75718;SDS011;64340;48.534;-3.036;2022-10-16T08:33:41;4.53;;;1.40;;
75718;SDS011;64340;48.534;-3.036;2022-10-16T08:36:09;4.85;;;1.40;;
75718;SDS011;64340;48.534;-3.036;2022-10-16T08:38:36;3.88;;;1.10;;
75718;SDS011;64340;48.534;-3.036;2022-10-16T08:41:49;2.65;;;0.90;;
75718;SDS011;64340;48.534;-3.036;2022-10-16T08:44:15;5.07;;;1.30;;
75718;SDS011;64340;48.534;-3.036;2022-10-16T08:49:43;4.50;;;1.00;;
75718;SDS011;64340;48.534;-3.036;2022-10-16T08:52:21;2.85;;;1.10;;
75718;SDS011;64340;48.534;-3.036;2022-10-16T08:54:55;6.75;;;1.17;;
75718;SDS011;64340;48.534;-3.036;2022-10-16T08:57:22;2.72;;;0.90;;
75718;SDS011;64340;48.534;-3.036;2022-10-16T08:59:51;9.88;;;1.35;;
75718;SDS011;64340;48.534;-3.036;2022-10-16T09:02:24;2.88;;;0.80;;
75718;SDS011;64340;48.534;-3.036;2022-10-16T09:21:32;4.57;;;1.35;;
75718;SDS011;64340;48.534;-3.036;2022-10-16T09:24:13;6.82;;;2.13;;
75718;SDS011;64340;48.534;-3.036;2022-10-16T09:26:41;11.85;;;4.82;;
75718;SDS011;64340;48.534;-3.036;2022-10-16T09:29:14;12.38;;;4.82;;
75718;SDS011;64340;48.534;-3.036;2022-10-16T09:31:41;12.20;;;5.68;;
75718;SDS011;64340;48.534;-3.036;2022-10-16T09:34:20;16.70;;;7.18;;
75718;SDS011;64340;48.534;-3.036;2022-10-16T09:36:55;18.92;;;8.88;;
75718;SDS011;64340;48.534;-3.036;2022-10-16T09:39:23;20.05;;;9.48;;
75718;SDS011;64340;48.534;-3.036;2022-10-16T09:41:49;22.85;;;10.18;;
75718;SDS011;64340;48.534;-3.036;2022-10-16T09:44:28;31.63;;;13.95;;
75718;SDS011;64340;48.534;-3.036;2022-10-16T09:47:10;32.03;;;16.80;;
75718;SDS011;64340;48.534;-3.036;2022-10-16T09:49:49;36.42;;;18.15;;
75718;SDS011;64340;48.534;-3.036;2022-10-16T09:52:16;32.50;;;16.58;;
75718;SDS011;64340;48.534;-3.036;2022-10-16T09:54:54;35.10;;;17.27;;
75718;SDS011;64340;48.534;-3.036;2022-10-16T09:57:25;32.25;;;14.75;;
75718;SDS011;64340;48.534;-3.036;2022-10-16T09:59:52;23.65;;;12.85;;
75718;SDS011;64340;48.534;-3.036;2022-10-16T10:02:23;30.23;;;12.98;;
75718;SDS011;64340;48.534;-3.036;2022-10-16T10:07:57;29.70;;;12.45;;
75718;SDS011;64340;48.534;-3.036;2022-10-16T10:10:41;28.42;;;13.35;;
75718;SDS011;64340;48.534;-3.036;2022-10-16T10:13:20;29.38;;;12.90;;
75718;SDS011;64340;48.534;-3.036;2022-10-16T10:15:47;27.60;;;12.63;;
75718;SDS011;64340;48.534;-3.036;2022-10-16T10:18:17;30.40;;;12.23;;
75718;SDS011;64340;48.534;-3.036;2022-10-16T10:20:46;23.38;;;11.60;;
75718;SDS011;64340;48.534;-3.036;2022-10-16T10:23:24;22.63;;;10.98;;
75718;SDS011;64340;48.534;-3.036;2022-10-16T10:36:53;22.77;;;10.60;;
75718;SDS011;64340;48.534;-3.036;2022-10-16T10:39:36;19.35;;;9.80;;
75718;SDS011;64340;48.534;-3.036;2022-10-16T10:50:02;17.85;;;9.52;;
75718;SDS011;64340;48.534;-3.036;2022-10-16T10:55:52;20.35;;;8.75;;
75718;SDS011;64340;48.534;-3.036;2022-10-16T11:01:13;16.70;;;7.70;;
75718;SDS011;64340;48.534;-3.036;2022-10-16T11:07:15;17.10;;;7.82;;
75718;SDS011;64340;48.534;-3.036;2022-10-16T11:09:25;20.45;;;7.72;;
75718;SDS011;64340;48.534;-3.036;2022-10-16T11:14:34;15.52;;;7.18;;
75718;SDS011;64340;48.534;-3.036;2022-10-16T11:17:16;17.20;;;7.65;;
75718;SDS011;64340;48.534;-3.036;2022-10-16T11:19:58;15.00;;;6.03;;
75718;SDS011;64340;48.534;-3.036;2022-10-16T11:22:38;12.93;;;6.75;;
75718;SDS011;64340;48.534;-3.036;2022-10-16T11:25:13;15.82;;;6.70;;
75718;SDS011;64340;48.534;-3.036;2022-10-16T11:27:51;13.38;;;6.20;;
75718;SDS011;64340;48.534;-3.036;2022-10-16T11:30:26;16.52;;;6.03;;
75718;SDS011;64340;48.534;-3.036;2022-10-16T11:39:00;13.27;;;6.18;;
75718;SDS011;64340;48.534;-3.036;2022-10-16T11:41:41;9.57;;;5.15;;
75718;SDS011;64340;48.534;-3.036;2022-10-16T11:46:49;13.00;;;4.78;;
75718;SDS011;64340;48.534;-3.036;2022-10-16T11:49:25;10.10;;;5.00;;
75718;SDS011;64340;48.534;-3.036;2022-10-16T11:51:56;10.13;;;4.25;;
75718;SDS011;64340;48.534;-3.036;2022-10-16T11:54:54;9.88;;;4.65;;
75718;SDS011;64340;48.534;-3.036;2022-10-16T11:57:27;11.23;;;4.75;;
75718;SDS011;64340;48.534;-3.036;2022-10-16T12:00:05;10.00;;;4.15;;
75718;SDS011;64340;48.534;-3.036;2022-10-16T12:05:50;10.63;;;4.38;;
75718;SDS011;64340;48.534;-3.036;2022-10-16T12:08:16;9.65;;;4.40;;
75718;SDS011;64340;48.534;-3.036;2022-10-16T12:10:44;7.13;;;3.78;;
75718;SDS011;64340;48.534;-3.036;2022-10-16T12:14:03;7.20;;;3.72;;
75718;SDS011;64340;48.534;-3.036;2022-10-16T12:16:07;9.32;;;4.35;;
75718;SDS011;64340;48.534;-3.036;2022-10-16T12:18:46;7.50;;;3.70;;
75718;SDS011;64340;48.534;-3.036;2022-10-16T12:21:14;8.90;;;3.90;;
75718;SDS011;64340;48.534;-3.036;2022-10-16T12:23:49;8.85;;;3.95;;
75718;SDS011;64340;48.534;-3.036;2022-10-16T12:26:29;6.78;;;3.20;;
75718;SDS011;64340;48.534;-3.036;2022-10-16T12:29:21;9.10;;;3.97;;
75718;SDS011;64340;48.534;-3.036;2022-10-16T12:32:19;8.73;;;3.42;;
75718;SDS011;64340;48.534;-3.036;2022-10-16T12:34:51;8.25;;;3.78;;
75718;SDS011;64340;48.534;-3.036;2022-10-16T12:37:21;6.07;;;3.45;;
75718;SDS011;64340;48.534;-3.036;2022-10-16T12:39:51;8.25;;;3.33;;
75718;SDS011;64340;48.534;-3.036;2022-10-16T12:44:51;7.68;;;2.90;;
75718;SDS011;64340;48.534;-3.036;2022-10-16T12:47:22;6.07;;;3.13;;
75718;SDS011;64340;48.534;-3.036;2022-10-16T12:50:00;8.02;;;3.40;;
75718;SDS011;64340;48.534;-3.036;2022-10-16T12:52:36;6.10;;;3.00;;
75718;SDS011;64340;48.534;-3.036;2022-10-16T12:55:03;6.90;;;2.65;;
75718;SDS011;64340;48.534;-3.036;2022-10-16T13:06:04;6.70;;;3.17;;
75718;SDS011;64340;48.534;-3.036;2022-10-16T13:09:02;6.03;;;2.72;;
75718;SDS011;64340;48.534;-3.036;2022-10-16T13:19:36;6.55;;;2.47;;
75718;SDS011;64340;48.534;-3.036;2022-10-16T13:22:16;6.20;;;2.25;;
75718;SDS011;64340;48.534;-3.036;2022-10-16T13:30:16;4.63;;;2.30;;
75718;SDS011;64340;48.534;-3.036;2022-10-16T13:32:48;4.60;;;2.30;;
75718;SDS011;64340;48.534;-3.036;2022-10-16T13:35:21;8.10;;;3.25;;
75718;SDS011;64340;48.534;-3.036;2022-10-16T13:37:49;4.43;;;2.30;;
75718;SDS011;64340;48.534;-3.036;2022-10-16T13:40:20;4.30;;;2.22;;
75718;SDS011;64340;48.534;-3.036;2022-10-16T13:42:48;5.95;;;2.13;;
75718;SDS011;64340;48.534;-3.036;2022-10-16T13:45:21;6.00;;;2.20;;
75718;SDS011;64340;48.534;-3.036;2022-10-16T13:48:00;4.95;;;2.17;;
75718;SDS011;64340;48.534;-3.036;2022-10-16T13:50:28;3.92;;;2.13;;
75718;SDS011;64340;48.534;-3.036;2022-10-16T13:53:04;6.00;;;2.30;;
75718;SDS011;64340;48.534;-3.036;2022-10-16T13:55:31;5.88;;;2.35;;
75718;SDS011;64340;48.534;-3.036;2022-10-16T13:58:13;3.95;;;2.08;;
75718;SDS011;64340;48.534;-3.036;2022-10-16T14:00:40;3.70;;;1.70;;
75718;SDS011;64340;48.534;-3.036;2022-10-16T14:03:18;4.55;;;1.80;;
75718;SDS011;64340;48.534;-3.036;2022-10-16T14:05:46;4.22;;;2.00;;
75718;SDS011;64340;48.534;-3.036;2022-10-16T14:08:15;3.35;;;2.15;;
75718;SDS011;64340;48.534;-3.036;2022-10-16T14:10:41;3.72;;;1.77;;
75718;SDS011;64340;48.534;-3.036;2022-10-16T14:13:07;4.65;;;1.90;;
75718;SDS011;64340;48.534;-3.036;2022-10-16T14:15:40;4.35;;;1.80;;
75718;SDS011;64340;48.534;-3.036;2022-10-16T14:18:14;3.83;;;1.63;;
75718;SDS011;64340;48.534;-3.036;2022-10-16T14:20:44;4.18;;;1.70;;
75718;SDS011;64340;48.534;-3.036;2022-10-16T14:23:20;3.38;;;1.55;;
75718;SDS011;64340;48.534;-3.036;2022-10-16T14:25:51;3.40;;;1.75;;
75718;SDS011;64340;48.534;-3.036;2022-10-16T14:28:18;3.30;;;1.40;;
75718;SDS011;64340;48.534;-3.036;2022-10-16T14:30:51;4.35;;;1.60;;
75718;SDS011;64340;48.534;-3.036;2022-10-16T14:33:40;5.28;;;1.90;;
75718;SDS011;64340;48.534;-3.036;2022-10-16T14:36:11;3.58;;;1.70;;
75718;SDS011;64340;48.534;-3.036;2022-10-16T14:38:41;3.05;;;1.50;;
75718;SDS011;64340;48.534;-3.036;2022-10-16T14:41:08;3.20;;;1.30;;
75718;SDS011;64340;48.534;-3.036;2022-10-16T14:43:35;3.70;;;1.35;;
75718;SDS011;64340;48.534;-3.036;2022-10-16T14:46:06;3.95;;;1.45;;
75718;SDS011;64340;48.534;-3.036;2022-10-16T14:48:42;4.15;;;1.42;;
75718;SDS011;64340;48.534;-3.036;2022-10-16T14:51:16;2.83;;;1.42;;
75718;SDS011;64340;48.534;-3.036;2022-10-16T14:53:43;4.32;;;1.70;;
75718;SDS011;64340;48.534;-3.036;2022-10-16T14:56:16;3.35;;;1.13;;
75718;SDS011;64340;48.534;-3.036;2022-10-16T14:58:45;3.47;;;1.58;;
75718;SDS011;64340;48.534;-3.036;2022-10-16T15:01:11;3.13;;;1.65;;
75718;SDS011;64340;48.534;-3.036;2022-10-16T15:03:37;2.33;;;1.13;;
75718;SDS011;64340;48.534;-3.036;2022-10-16T15:06:03;3.20;;;1.52;;
75718;SDS011;64340;48.534;-3.036;2022-10-16T15:08:34;2.78;;;0.95;;
75718;SDS011;64340;48.534;-3.036;2022-10-16T15:11:00;2.33;;;1.42;;
75718;SDS011;64340;48.534;-3.036;2022-10-16T15:13:26;2.67;;;1.20;;
75718;SDS011;64340;48.534;-3.036;2022-10-16T15:15:52;3.33;;;1.13;;
75718;SDS011;64340;48.534;-3.036;2022-10-16T15:18:18;7.40;;;1.73;;
75718;SDS011;64340;48.534;-3.036;2022-10-16T15:20:47;3.00;;;1.13;;
75718;SDS011;64340;48.534;-3.036;2022-10-16T15:23:18;2.35;;;1.10;;
75718;SDS011;64340;48.534;-3.036;2022-10-16T15:25:53;2.88;;;1.13;;
75718;SDS011;64340;48.534;-3.036;2022-10-16T15:28:20;2.38;;;0.85;;
75718;SDS011;64340;48.534;-3.036;2022-10-16T15:30:46;1.77;;;0.98;;
75718;SDS011;64340;48.534;-3.036;2022-10-16T15:33:16;1.95;;;1.02;;
75718;SDS011;64340;48.534;-3.036;2022-10-16T15:35:48;2.72;;;0.98;;
75718;SDS011;64340;48.534;-3.036;2022-10-16T15:38:16;2.55;;;1.20;;
75718;SDS011;64340;48.534;-3.036;2022-10-16T15:40:43;4.25;;;1.00;;
75718;SDS011;64340;48.534;-3.036;2022-10-16T15:43:10;1.77;;;0.90;;
75718;SDS011;64340;48.534;-3.036;2022-10-16T15:45:36;1.63;;;0.93;;
75718;SDS011;64340;48.534;-3.036;2022-10-16T15:48:02;2.50;;;1.10;;
75718;SDS011;64340;48.534;-3.036;2022-10-16T15:50:31;2.97;;;0.90;;
75718;SDS011;64340;48.534;-3.036;2022-10-16T15:52:57;2.85;;;1.10;;
75718;SDS011;64340;48.534;-3.036;2022-10-16T15:55:24;3.55;;;1.15;;
75718;SDS011;64340;48.534;-3.036;2022-10-16T15:57:50;2.65;;;0.85;;
75718;SDS011;64340;48.534;-3.036;2022-10-16T16:00:17;3.00;;;0.85;;
75718;SDS011;64340;48.534;-3.036;2022-10-16T16:02:50;1.65;;;0.65;;
75718;SDS011;64340;48.534;-3.036;2022-10-16T16:05:19;1.67;;;0.80;;
75718;SDS011;64340;48.534;-3.036;2022-10-16T16:07:46;2.50;;;0.88;;
75718;SDS011;64340;48.534;-3.036;2022-10-16T16:10:12;2.25;;;1.00;;
75718;SDS011;64340;48.534;-3.036;2022-10-16T16:12:38;2.90;;;0.77;;
75718;SDS011;64340;48.534;-3.036;2022-10-16T16:15:04;3.50;;;1.02;;
75718;SDS011;64340;48.534;-3.036;2022-10-16T16:17:32;2.60;;;0.60;;
75718;SDS011;64340;48.534;-3.036;2022-10-16T16:19:59;2.53;;;0.70;;
75718;SDS011;64340;48.534;-3.036;2022-10-16T16:22:25;3.75;;;1.08;;
75718;SDS011;64340;48.534;-3.036;2022-10-16T16:24:51;2.30;;;1.00;;
75718;SDS011;64340;48.534;-3.036;2022-10-16T16:27:17;2.08;;;0.95;;
75718;SDS011;64340;48.534;-3.036;2022-10-16T16:29:44;2.35;;;0.80;;
75718;SDS011;64340;48.534;-3.036;2022-10-16T16:32:10;2.70;;;1.08;;